Terminal Aerodrome Forecast
Issued by NWS

Home | Current Version | Previous Version | Text Only | Print | Product List | Glossary On
Versions: 1 2 3 4 5 6 7 8 9 10 11 12 13 14 15 16 17 18 19
000
FTUS44 KSJT 271100 RRA
TAFBBD
TAF
KBBD 271141Z 2712/2812 06009KT P6SM SCT020 BKN045
      TEMPO 2715/2718 BKN020
     FM271800 06009KT 4SM BR OVC015
     FM272000 07008KT 6SM -FZDZSN OVC012
     FM280200 07009KT 4SM -FZDZ OVC006=

USA.gov is the U.S. government's official web portal to all federal, state and local government web resources and services.